sensor_id;sensor_type;location;lat;lon;timestamp;P1;durP1;ratioP1;P2;durP2;ratioP2
819;SDS011;392;48.838;2.322;2022-11-21T00:00:40;7.70;;;3.90;;
819;SDS011;392;48.838;2.322;2022-11-21T00:03:10;10.90;;;4.00;;
819;SDS011;392;48.838;2.322;2022-11-21T00:05:38;9.00;;;2.80;;
819;SDS011;392;48.838;2.322;2022-11-21T00:08:06;7.33;;;2.67;;
819;SDS011;392;48.838;2.322;2022-11-21T00:10:34;11.30;;;3.83;;
819;SDS011;392;48.838;2.322;2022-11-21T00:13:03;5.40;;;2.87;;
819;SDS011;392;48.838;2.322;2022-11-21T00:15:33;5.17;;;3.50;;
819;SDS011;392;48.838;2.322;2022-11-21T00:18:01;6.60;;;2.70;;
819;SDS011;392;48.838;2.322;2022-11-21T00:20:29;8.93;;;3.00;;
819;SDS011;392;48.838;2.322;2022-11-21T00:22:57;6.73;;;3.00;;
819;SDS011;392;48.838;2.322;2022-11-21T00:25:24;4.93;;;2.67;;
819;SDS011;392;48.838;2.322;2022-11-21T00:27:51;8.63;;;2.73;;
819;SDS011;392;48.838;2.322;2022-11-21T00:30:18;6.10;;;2.90;;
819;SDS011;392;48.838;2.322;2022-11-21T00:32:47;7.13;;;2.87;;
819;SDS011;392;48.838;2.322;2022-11-21T00:35:15;7.37;;;3.37;;
819;SDS011;392;48.838;2.322;2022-11-21T00:37:42;7.10;;;3.07;;
819;SDS011;392;48.838;2.322;2022-11-21T00:40:10;8.57;;;3.30;;
819;SDS011;392;48.838;2.322;2022-11-21T00:42:37;9.73;;;2.80;;
819;SDS011;392;48.838;2.322;2022-11-21T00:45:05;6.83;;;2.50;;
819;SDS011;392;48.838;2.322;2022-11-21T00:47:33;4.67;;;3.20;;
819;SDS011;392;48.838;2.322;2022-11-21T00:50:02;10.77;;;3.63;;
819;SDS011;392;48.838;2.322;2022-11-21T00:52:30;8.60;;;2.90;;
819;SDS011;392;48.838;2.322;2022-11-21T00:54:57;5.57;;;3.20;;
819;SDS011;392;48.838;2.322;2022-11-21T00:57:24;9.20;;;3.70;;
819;SDS011;392;48.838;2.322;2022-11-21T00:59:52;9.60;;;3.83;;
819;SDS011;392;48.838;2.322;2022-11-21T01:02:19;8.67;;;3.00;;
819;SDS011;392;48.838;2.322;2022-11-21T01:04:46;4.30;;;2.80;;
819;SDS011;392;48.838;2.322;2022-11-21T01:07:15;8.20;;;3.27;;
819;SDS011;392;48.838;2.322;2022-11-21T01:09:42;8.57;;;3.97;;
819;SDS011;392;48.838;2.322;2022-11-21T01:12:09;7.93;;;3.47;;
819;SDS011;392;48.838;2.322;2022-11-21T01:14:37;7.60;;;3.30;;
819;SDS011;392;48.838;2.322;2022-11-21T01:17:04;13.67;;;3.47;;
819;SDS011;392;48.838;2.322;2022-11-21T01:19:32;12.20;;;4.60;;
819;SDS011;392;48.838;2.322;2022-11-21T01:21:59;8.40;;;3.20;;
819;SDS011;392;48.838;2.322;2022-11-21T01:24:28;9.50;;;4.00;;
819;SDS011;392;48.838;2.322;2022-11-21T01:26:55;9.30;;;4.00;;
819;SDS011;392;48.838;2.322;2022-11-21T01:29:22;6.50;;;3.47;;
819;SDS011;392;48.838;2.322;2022-11-21T01:31:50;10.70;;;3.77;;
819;SDS011;392;48.838;2.322;2022-11-21T01:34:17;6.60;;;3.57;;
819;SDS011;392;48.838;2.322;2022-11-21T01:36:44;8.47;;;3.40;;
819;SDS011;392;48.838;2.322;2022-11-21T01:39:12;7.73;;;3.50;;
819;SDS011;392;48.838;2.322;2022-11-21T01:41:41;7.33;;;3.60;;
819;SDS011;392;48.838;2.322;2022-11-21T01:44:13;6.67;;;3.40;;
819;SDS011;392;48.838;2.322;2022-11-21T01:46:45;13.53;;;4.30;;
819;SDS011;392;48.838;2.322;2022-11-21T01:49:13;6.30;;;2.83;;
819;SDS011;392;48.838;2.322;2022-11-21T01:51:43;6.13;;;3.60;;
819;SDS011;392;48.838;2.322;2022-11-21T01:54:17;5.90;;;3.63;;
819;SDS011;392;48.838;2.322;2022-11-21T01:56:52;7.23;;;3.57;;
819;SDS011;392;48.838;2.322;2022-11-21T01:59:28;7.73;;;3.03;;
819;SDS011;392;48.838;2.322;2022-11-21T02:01:58;6.40;;;3.17;;
819;SDS011;392;48.838;2.322;2022-11-21T02:04:29;8.37;;;2.93;;
819;SDS011;392;48.838;2.322;2022-11-21T02:06:58;5.63;;;3.17;;
819;SDS011;392;48.838;2.322;2022-11-21T02:09:30;7.87;;;4.30;;
819;SDS011;392;48.838;2.322;2022-11-21T02:12:04;9.43;;;4.17;;
819;SDS011;392;48.838;2.322;2022-11-21T02:14:35;6.33;;;3.47;;
819;SDS011;392;48.838;2.322;2022-11-21T02:17:04;7.60;;;3.07;;
819;SDS011;392;48.838;2.322;2022-11-21T02:19:34;11.27;;;4.00;;
819;SDS011;392;48.838;2.322;2022-11-21T02:22:11;11.80;;;4.17;;
819;SDS011;392;48.838;2.322;2022-11-21T02:24:57;13.63;;;4.00;;
819;SDS011;392;48.838;2.322;2022-11-21T02:27:32;10.60;;;3.87;;
819;SDS011;392;48.838;2.322;2022-11-21T02:30:00;9.33;;;4.03;;
819;SDS011;392;48.838;2.322;2022-11-21T02:32:31;9.47;;;4.10;;
819;SDS011;392;48.838;2.322;2022-11-21T02:35:01;8.80;;;4.10;;
819;SDS011;392;48.838;2.322;2022-11-21T02:37:29;6.73;;;3.30;;
819;SDS011;392;48.838;2.322;2022-11-21T02:39:59;6.67;;;3.40;;
819;SDS011;392;48.838;2.322;2022-11-21T02:42:33;7.80;;;4.00;;
819;SDS011;392;48.838;2.322;2022-11-21T02:45:07;9.30;;;3.43;;
819;SDS011;392;48.838;2.322;2022-11-21T02:47:40;6.40;;;3.67;;
819;SDS011;392;48.838;2.322;2022-11-21T02:50:10;11.80;;;3.50;;
819;SDS011;392;48.838;2.322;2022-11-21T02:52:40;8.30;;;3.97;;
819;SDS011;392;48.838;2.322;2022-11-21T02:55:09;8.90;;;3.63;;
819;SDS011;392;48.838;2.322;2022-11-21T02:57:37;9.33;;;4.10;;
819;SDS011;392;48.838;2.322;2022-11-21T03:00:05;6.57;;;4.00;;
819;SDS011;392;48.838;2.322;2022-11-21T03:02:34;9.47;;;4.57;;
819;SDS011;392;48.838;2.322;2022-11-21T03:05:02;8.33;;;4.17;;
819;SDS011;392;48.838;2.322;2022-11-21T03:07:32;7.83;;;3.80;;
819;SDS011;392;48.838;2.322;2022-11-21T03:09:59;9.60;;;4.57;;
819;SDS011;392;48.838;2.322;2022-11-21T03:12:28;10.10;;;4.33;;
819;SDS011;392;48.838;2.322;2022-11-21T03:14:55;7.33;;;4.43;;
819;SDS011;392;48.838;2.322;2022-11-21T03:17:23;13.27;;;4.10;;
819;SDS011;392;48.838;2.322;2022-11-21T03:19:50;8.93;;;4.80;;
819;SDS011;392;48.838;2.322;2022-11-21T03:22:17;10.10;;;4.30;;
819;SDS011;392;48.838;2.322;2022-11-21T03:24:44;10.13;;;4.53;;
819;SDS011;392;48.838;2.322;2022-11-21T03:27:12;6.27;;;3.50;;
819;SDS011;392;48.838;2.322;2022-11-21T03:29:41;8.93;;;4.00;;
819;SDS011;392;48.838;2.322;2022-11-21T03:32:08;7.53;;;4.33;;
819;SDS011;392;48.838;2.322;2022-11-21T03:34:35;8.77;;;3.80;;
819;SDS011;392;48.838;2.322;2022-11-21T03:37:03;7.87;;;4.00;;
819;SDS011;392;48.838;2.322;2022-11-21T03:39:30;10.57;;;3.80;;
819;SDS011;392;48.838;2.322;2022-11-21T03:41:57;10.17;;;3.90;;
819;SDS011;392;48.838;2.322;2022-11-21T03:44:25;9.17;;;4.30;;
819;SDS011;392;48.838;2.322;2022-11-21T03:46:53;8.83;;;4.70;;
819;SDS011;392;48.838;2.322;2022-11-21T03:49:21;12.40;;;4.47;;
819;SDS011;392;48.838;2.322;2022-11-21T03:51:48;8.33;;;4.30;;
819;SDS011;392;48.838;2.322;2022-11-21T03:54:16;11.57;;;4.43;;
819;SDS011;392;48.838;2.322;2022-11-21T03:56:43;10.97;;;4.23;;
819;SDS011;392;48.838;2.322;2022-11-21T03:59:10;7.37;;;4.43;;
819;SDS011;392;48.838;2.322;2022-11-21T04:01:37;9.10;;;4.60;;
819;SDS011;392;48.838;2.322;2022-11-21T04:04:06;9.43;;;4.20;;
819;SDS011;392;48.838;2.322;2022-11-21T04:06:34;7.23;;;4.30;;
819;SDS011;392;48.838;2.322;2022-11-21T04:09:01;9.60;;;4.33;;
819;SDS011;392;48.838;2.322;2022-11-21T04:11:29;10.47;;;4.60;;
819;SDS011;392;48.838;2.322;2022-11-21T04:13:56;10.77;;;5.07;;
819;SDS011;392;48.838;2.322;2022-11-21T04:16:24;10.20;;;4.67;;
819;SDS011;392;48.838;2.322;2022-11-21T04:18:51;12.10;;;4.70;;
819;SDS011;392;48.838;2.322;2022-11-21T04:21:20;10.40;;;4.63;;
819;SDS011;392;48.838;2.322;2022-11-21T04:23:47;9.47;;;4.30;;
819;SDS011;392;48.838;2.322;2022-11-21T04:26:14;10.00;;;4.63;;
819;SDS011;392;48.838;2.322;2022-11-21T04:28:41;10.93;;;5.17;;
819;SDS011;392;48.838;2.322;2022-11-21T04:31:09;9.87;;;6.13;;
819;SDS011;392;48.838;2.322;2022-11-21T04:33:36;9.10;;;4.90;;
819;SDS011;392;48.838;2.322;2022-11-21T04:36:04;9.43;;;5.73;;
819;SDS011;392;48.838;2.322;2022-11-21T04:38:34;7.50;;;5.67;;
819;SDS011;392;48.838;2.322;2022-11-21T04:41:02;13.93;;;5.03;;
819;SDS011;392;48.838;2.322;2022-11-21T04:43:30;10.63;;;5.30;;
819;SDS011;392;48.838;2.322;2022-11-21T04:45:57;11.50;;;5.70;;
819;SDS011;392;48.838;2.322;2022-11-21T04:48:24;15.50;;;5.47;;
819;SDS011;392;48.838;2.322;2022-11-21T04:50:51;12.10;;;5.50;;
819;SDS011;392;48.838;2.322;2022-11-21T04:53:19;10.23;;;4.83;;
819;SDS011;392;48.838;2.322;2022-11-21T04:55:47;12.40;;;5.70;;
819;SDS011;392;48.838;2.322;2022-11-21T04:58:15;12.60;;;5.93;;
819;SDS011;392;48.838;2.322;2022-11-21T05:00:42;12.70;;;6.37;;
819;SDS011;392;48.838;2.322;2022-11-21T05:03:09;13.90;;;5.13;;
819;SDS011;392;48.838;2.322;2022-11-21T05:05:36;12.33;;;5.67;;
819;SDS011;392;48.838;2.322;2022-11-21T05:08:04;12.57;;;6.30;;
819;SDS011;392;48.838;2.322;2022-11-21T05:10:31;12.67;;;6.90;;
819;SDS011;392;48.838;2.322;2022-11-21T05:13:20;11.30;;;5.90;;
819;SDS011;392;48.838;2.322;2022-11-21T05:15:47;13.07;;;6.07;;
819;SDS011;392;48.838;2.322;2022-11-21T05:18:16;13.00;;;5.20;;
819;SDS011;392;48.838;2.322;2022-11-21T05:20:44;15.87;;;6.10;;
819;SDS011;392;48.838;2.322;2022-11-21T05:23:12;14.17;;;5.87;;
819;SDS011;392;48.838;2.322;2022-11-21T05:25:39;12.93;;;5.73;;
819;SDS011;392;48.838;2.322;2022-11-21T05:28:06;14.80;;;6.10;;
819;SDS011;392;48.838;2.322;2022-11-21T05:30:36;9.87;;;5.83;;
819;SDS011;392;48.838;2.322;2022-11-21T05:33:03;12.70;;;6.60;;
819;SDS011;392;48.838;2.322;2022-11-21T05:35:31;13.97;;;5.57;;
819;SDS011;392;48.838;2.322;2022-11-21T05:37:58;12.53;;;6.10;;
819;SDS011;392;48.838;2.322;2022-11-21T05:40:26;12.30;;;5.90;;
819;SDS011;392;48.838;2.322;2022-11-21T05:42:53;15.50;;;6.00;;
819;SDS011;392;48.838;2.322;2022-11-21T05:45:39;15.23;;;5.93;;
819;SDS011;392;48.838;2.322;2022-11-21T05:48:07;12.70;;;5.90;;
819;SDS011;392;48.838;2.322;2022-11-21T05:50:34;12.87;;;6.30;;
819;SDS011;392;48.838;2.322;2022-11-21T05:53:02;12.50;;;5.97;;
819;SDS011;392;48.838;2.322;2022-11-21T05:55:30;11.63;;;5.83;;
819;SDS011;392;48.838;2.322;2022-11-21T05:57:59;14.10;;;5.80;;
819;SDS011;392;48.838;2.322;2022-11-21T06:00:27;15.47;;;5.63;;
819;SDS011;392;48.838;2.322;2022-11-21T06:02:56;14.10;;;5.83;;
819;SDS011;392;48.838;2.322;2022-11-21T06:05:41;12.47;;;6.63;;
819;SDS011;392;48.838;2.322;2022-11-21T06:08:08;11.47;;;5.60;;
819;SDS011;392;48.838;2.322;2022-11-21T06:10:35;12.10;;;6.70;;
819;SDS011;392;48.838;2.322;2022-11-21T06:13:03;15.53;;;6.47;;
819;SDS011;392;48.838;2.322;2022-11-21T06:15:47;10.97;;;5.77;;
819;SDS011;392;48.838;2.322;2022-11-21T06:18:17;12.53;;;6.50;;
819;SDS011;392;48.838;2.322;2022-11-21T06:20:45;16.00;;;7.37;;
819;SDS011;392;48.838;2.322;2022-11-21T06:23:12;13.47;;;6.83;;
819;SDS011;392;48.838;2.322;2022-11-21T06:25:40;16.40;;;8.07;;
819;SDS011;392;48.838;2.322;2022-11-21T06:28:08;14.60;;;7.80;;
819;SDS011;392;48.838;2.322;2022-11-21T06:30:36;13.17;;;6.93;;
819;SDS011;392;48.838;2.322;2022-11-21T06:33:04;14.90;;;7.30;;
819;SDS011;392;48.838;2.322;2022-11-21T06:35:35;11.33;;;7.40;;
819;SDS011;392;48.838;2.322;2022-11-21T06:38:04;15.30;;;8.60;;
819;SDS011;392;48.838;2.322;2022-11-21T06:40:31;12.93;;;8.63;;
819;SDS011;392;48.838;2.322;2022-11-21T06:42:59;15.20;;;8.10;;
819;SDS011;392;48.838;2.322;2022-11-21T06:45:26;17.63;;;9.43;;
819;SDS011;392;48.838;2.322;2022-11-21T06:47:54;15.77;;;8.30;;
819;SDS011;392;48.838;2.322;2022-11-21T06:50:21;18.33;;;9.20;;
819;SDS011;392;48.838;2.322;2022-11-21T06:52:49;19.30;;;11.13;;
819;SDS011;392;48.838;2.322;2022-11-21T06:55:17;16.27;;;9.50;;
819;SDS011;392;48.838;2.322;2022-11-21T06:57:45;17.90;;;11.40;;
819;SDS011;392;48.838;2.322;2022-11-21T07:00:13;17.37;;;11.10;;
819;SDS011;392;48.838;2.322;2022-11-21T07:02:42;18.73;;;11.83;;
819;SDS011;392;48.838;2.322;2022-11-21T07:05:09;19.57;;;11.40;;
819;SDS011;392;48.838;2.322;2022-11-21T07:07:36;16.87;;;10.80;;
819;SDS011;392;48.838;2.322;2022-11-21T07:10:06;20.60;;;10.90;;
819;SDS011;392;48.838;2.322;2022-11-21T07:12:34;16.93;;;9.37;;
819;SDS011;392;48.838;2.322;2022-11-21T07:15:19;19.17;;;10.53;;
819;SDS011;392;48.838;2.322;2022-11-21T07:17:47;12.87;;;9.93;;
819;SDS011;392;48.838;2.322;2022-11-21T07:20:14;16.03;;;10.90;;
819;SDS011;392;48.838;2.322;2022-11-21T07:22:41;12.93;;;9.10;;
819;SDS011;392;48.838;2.322;2022-11-21T07:25:10;15.70;;;9.43;;
819;SDS011;392;48.838;2.322;2022-11-21T07:27:37;14.47;;;10.10;;
819;SDS011;392;48.838;2.322;2022-11-21T07:30:05;16.57;;;10.43;;
819;SDS011;392;48.838;2.322;2022-11-21T07:32:34;18.43;;;9.83;;
819;SDS011;392;48.838;2.322;2022-11-21T07:35:01;18.90;;;9.70;;
819;SDS011;392;48.838;2.322;2022-11-21T07:37:29;15.77;;;10.33;;
819;SDS011;392;48.838;2.322;2022-11-21T07:39:56;15.80;;;10.07;;
819;SDS011;392;48.838;2.322;2022-11-21T07:42:25;15.97;;;10.80;;
819;SDS011;392;48.838;2.322;2022-11-21T07:44:52;16.27;;;9.93;;
819;SDS011;392;48.838;2.322;2022-11-21T07:47:20;13.07;;;10.47;;
819;SDS011;392;48.838;2.322;2022-11-21T07:49:47;17.57;;;11.03;;
819;SDS011;392;48.838;2.322;2022-11-21T07:52:14;15.13;;;11.70;;
819;SDS011;392;48.838;2.322;2022-11-21T07:54:42;17.50;;;11.57;;
819;SDS011;392;48.838;2.322;2022-11-21T07:57:09;16.83;;;12.47;;
819;SDS011;392;48.838;2.322;2022-11-21T07:59:38;19.00;;;12.40;;
819;SDS011;392;48.838;2.322;2022-11-21T08:02:05;20.60;;;12.87;;
819;SDS011;392;48.838;2.322;2022-11-21T08:04:32;22.07;;;14.07;;
819;SDS011;392;48.838;2.322;2022-11-21T08:06:59;18.40;;;13.53;;
819;SDS011;392;48.838;2.322;2022-11-21T08:09:27;19.43;;;14.43;;
819;SDS011;392;48.838;2.322;2022-11-21T08:11:54;19.57;;;14.97;;
819;SDS011;392;48.838;2.322;2022-11-21T08:14:22;25.53;;;13.73;;
819;SDS011;392;48.838;2.322;2022-11-21T08:16:51;22.30;;;13.87;;
819;SDS011;392;48.838;2.322;2022-11-21T08:19:18;16.83;;;13.20;;
819;SDS011;392;48.838;2.322;2022-11-21T08:21:46;17.07;;;12.70;;
819;SDS011;392;48.838;2.322;2022-11-21T08:24:13;18.20;;;13.47;;
819;SDS011;392;48.838;2.322;2022-11-21T08:26:41;16.03;;;12.20;;
819;SDS011;392;48.838;2.322;2022-11-21T08:29:09;19.30;;;12.63;;
819;SDS011;392;48.838;2.322;2022-11-21T08:31:37;16.80;;;11.13;;
819;SDS011;392;48.838;2.322;2022-11-21T08:34:06;15.60;;;10.37;;
819;SDS011;392;48.838;2.322;2022-11-21T08:36:34;17.80;;;10.30;;
819;SDS011;392;48.838;2.322;2022-11-21T08:39:01;20.17;;;10.80;;
819;SDS011;392;48.838;2.322;2022-11-21T08:41:29;13.47;;;10.90;;
819;SDS011;392;48.838;2.322;2022-11-21T08:44:14;14.27;;;10.57;;
819;SDS011;392;48.838;2.322;2022-11-21T08:46:41;18.63;;;11.57;;
819;SDS011;392;48.838;2.322;2022-11-21T08:49:10;14.43;;;10.97;;
819;SDS011;392;48.838;2.322;2022-11-21T08:51:37;15.83;;;11.67;;
819;SDS011;392;48.838;2.322;2022-11-21T08:54:04;18.57;;;13.03;;
819;SDS011;392;48.838;2.322;2022-11-21T08:56:33;16.23;;;11.97;;
819;SDS011;392;48.838;2.322;2022-11-21T08:59:00;16.53;;;10.83;;
819;SDS011;392;48.838;2.322;2022-11-21T09:01:28;17.40;;;11.30;;
819;SDS011;392;48.838;2.322;2022-11-21T09:03:55;17.80;;;11.63;;
819;SDS011;392;48.838;2.322;2022-11-21T09:06:24;17.73;;;12.30;;
819;SDS011;392;48.838;2.322;2022-11-21T09:08:51;17.13;;;12.40;;
819;SDS011;392;48.838;2.322;2022-11-21T09:11:18;17.30;;;11.50;;
819;SDS011;392;48.838;2.322;2022-11-21T09:13:46;20.90;;;11.43;;
819;SDS011;392;48.838;2.322;2022-11-21T09:16:33;16.93;;;11.70;;
819;SDS011;392;48.838;2.322;2022-11-21T09:19:18;12.57;;;9.93;;
819;SDS011;392;48.838;2.322;2022-11-21T09:21:49;14.43;;;10.37;;
819;SDS011;392;48.838;2.322;2022-11-21T09:24:17;13.43;;;10.90;;
819;SDS011;392;48.838;2.322;2022-11-21T09:26:45;14.23;;;10.20;;
819;SDS011;392;48.838;2.322;2022-11-21T09:29:12;13.90;;;9.07;;
819;SDS011;392;48.838;2.322;2022-11-21T09:31:40;14.80;;;8.40;;
819;SDS011;392;48.838;2.322;2022-11-21T09:34:08;11.13;;;8.07;;
819;SDS011;392;48.838;2.322;2022-11-21T09:36:36;13.00;;;8.07;;
819;SDS011;392;48.838;2.322;2022-11-21T09:39:05;13.20;;;8.50;;
819;SDS011;392;48.838;2.322;2022-11-21T09:41:33;11.60;;;8.50;;
819;SDS011;392;48.838;2.322;2022-11-21T09:44:24;11.57;;;8.00;;
819;SDS011;392;48.838;2.322;2022-11-21T09:47:22;12.63;;;9.20;;
819;SDS011;392;48.838;2.322;2022-11-21T09:49:52;12.03;;;8.67;;
819;SDS011;392;48.838;2.322;2022-11-21T09:52:25;13.47;;;8.50;;
819;SDS011;392;48.838;2.322;2022-11-21T09:55:02;11.93;;;8.93;;
819;SDS011;392;48.838;2.322;2022-11-21T09:57:33;11.20;;;9.13;;
819;SDS011;392;48.838;2.322;2022-11-21T10:00:02;12.67;;;9.03;;
819;SDS011;392;48.838;2.322;2022-11-21T10:02:41;13.67;;;9.43;;
819;SDS011;392;48.838;2.322;2022-11-21T10:05:11;11.00;;;8.60;;
819;SDS011;392;48.838;2.322;2022-11-21T10:07:40;13.10;;;8.80;;
819;SDS011;392;48.838;2.322;2022-11-21T10:10:14;11.47;;;7.97;;
819;SDS011;392;48.838;2.322;2022-11-21T10:12:53;14.57;;;8.40;;
819;SDS011;392;48.838;2.322;2022-11-21T10:15:40;10.33;;;7.93;;
819;SDS011;392;48.838;2.322;2022-11-21T10:18:28;12.30;;;7.50;;
819;SDS011;392;48.838;2.322;2022-11-21T10:21:25;10.13;;;7.07;;
819;SDS011;392;48.838;2.322;2022-11-21T10:24:13;11.43;;;7.03;;
819;SDS011;392;48.838;2.322;2022-11-21T10:26:57;7.60;;;5.97;;
819;SDS011;392;48.838;2.322;2022-11-21T10:29:29;10.83;;;7.33;;
819;SDS011;392;48.838;2.322;2022-11-21T10:32:02;13.80;;;6.87;;
819;SDS011;392;48.838;2.322;2022-11-21T10:34:38;16.60;;;7.50;;
819;SDS011;392;48.838;2.322;2022-11-21T10:37:09;10.17;;;6.50;;
819;SDS011;392;48.838;2.322;2022-11-21T10:39:42;13.10;;;5.93;;
819;SDS011;392;48.838;2.322;2022-11-21T10:42:16;12.40;;;6.43;;
819;SDS011;392;48.838;2.322;2022-11-21T10:44:55;13.00;;;5.70;;
819;SDS011;392;48.838;2.322;2022-11-21T10:47:44;13.33;;;6.73;;
819;SDS011;392;48.838;2.322;2022-11-21T10:50:17;11.47;;;5.50;;
819;SDS011;392;48.838;2.322;2022-11-21T10:53:09;8.90;;;5.73;;
819;SDS011;392;48.838;2.322;2022-11-21T10:56:00;9.63;;;5.17;;
819;SDS011;392;48.838;2.322;2022-11-21T10:58:39;8.40;;;4.90;;
819;SDS011;392;48.838;2.322;2022-11-21T11:01:22;8.97;;;5.60;;
819;SDS011;392;48.838;2.322;2022-11-21T11:04:05;13.63;;;6.43;;
819;SDS011;392;48.838;2.322;2022-11-21T11:06:42;14.83;;;6.50;;
819;SDS011;392;48.838;2.322;2022-11-21T11:09:21;12.70;;;5.70;;
819;SDS011;392;48.838;2.322;2022-11-21T11:14:50;12.37;;;5.73;;
819;SDS011;392;48.838;2.322;2022-11-21T11:17:26;10.70;;;5.30;;
819;SDS011;392;48.838;2.322;2022-11-21T11:19:59;10.10;;;5.70;;
819;SDS011;392;48.838;2.322;2022-11-21T11:22:30;11.10;;;4.63;;
819;SDS011;392;48.838;2.322;2022-11-21T11:24:58;8.20;;;4.97;;
819;SDS011;392;48.838;2.322;2022-11-21T11:27:30;11.90;;;6.20;;
819;SDS011;392;48.838;2.322;2022-11-21T11:30:06;10.47;;;5.27;;
819;SDS011;392;48.838;2.322;2022-11-21T11:32:41;7.00;;;5.40;;
819;SDS011;392;48.838;2.322;2022-11-21T11:35:15;9.20;;;5.33;;
819;SDS011;392;48.838;2.322;2022-11-21T11:37:51;9.73;;;5.20;;
819;SDS011;392;48.838;2.322;2022-11-21T11:40:28;8.17;;;6.03;;
819;SDS011;392;48.838;2.322;2022-11-21T11:43:13;11.10;;;5.53;;
819;SDS011;392;48.838;2.322;2022-11-21T11:46:16;13.90;;;5.40;;
819;SDS011;392;48.838;2.322;2022-11-21T11:49:14;9.30;;;5.63;;
819;SDS011;392;48.838;2.322;2022-11-21T11:51:50;9.77;;;4.77;;
819;SDS011;392;48.838;2.322;2022-11-21T11:54:21;9.03;;;5.43;;
819;SDS011;392;48.838;2.322;2022-11-21T11:56:52;9.30;;;5.50;;
819;SDS011;392;48.838;2.322;2022-11-21T11:59:21;9.60;;;5.50;;
819;SDS011;392;48.838;2.322;2022-11-21T12:01:56;11.23;;;6.10;;
819;SDS011;392;48.838;2.322;2022-11-21T12:04:28;10.00;;;5.10;;
819;SDS011;392;48.838;2.322;2022-11-21T12:07:05;14.20;;;6.50;;
819;SDS011;392;48.838;2.322;2022-11-21T12:09:43;11.60;;;5.10;;
819;SDS011;392;48.838;2.322;2022-11-21T12:12:19;6.97;;;5.00;;
819;SDS011;392;48.838;2.322;2022-11-21T12:14:56;9.33;;;5.83;;
819;SDS011;392;48.838;2.322;2022-11-21T12:17:56;8.90;;;5.13;;
819;SDS011;392;48.838;2.322;2022-11-21T12:20:39;9.10;;;5.30;;
819;SDS011;392;48.838;2.322;2022-11-21T12:23:15;10.33;;;5.37;;
819;SDS011;392;48.838;2.322;2022-11-21T12:25:46;9.50;;;4.90;;
819;SDS011;392;48.838;2.322;2022-11-21T12:28:22;10.83;;;5.50;;
819;SDS011;392;48.838;2.322;2022-11-21T12:30:59;11.67;;;6.10;;
819;SDS011;392;48.838;2.322;2022-11-21T12:33:36;9.70;;;5.23;;
819;SDS011;392;48.838;2.322;2022-11-21T12:36:14;10.80;;;4.97;;
819;SDS011;392;48.838;2.322;2022-11-21T12:39:04;7.50;;;5.00;;
819;SDS011;392;48.838;2.322;2022-11-21T12:42:10;10.00;;;5.60;;
819;SDS011;392;48.838;2.322;2022-11-21T12:45:04;7.87;;;5.20;;
819;SDS011;392;48.838;2.322;2022-11-21T12:47:54;12.67;;;5.97;;
819;SDS011;392;48.838;2.322;2022-11-21T12:51:06;10.03;;;5.40;;
819;SDS011;392;48.838;2.322;2022-11-21T12:54:41;11.87;;;6.40;;
819;SDS011;392;48.838;2.322;2022-11-21T12:57:30;10.73;;;5.80;;
819;SDS011;392;48.838;2.322;2022-11-21T13:00:09;7.87;;;5.23;;
819;SDS011;392;48.838;2.322;2022-11-21T13:02:49;7.50;;;5.90;;
819;SDS011;392;48.838;2.322;2022-11-21T13:05:45;10.00;;;5.70;;
819;SDS011;392;48.838;2.322;2022-11-21T13:08:18;12.10;;;5.73;;
819;SDS011;392;48.838;2.322;2022-11-21T13:10:49;10.73;;;5.50;;
819;SDS011;392;48.838;2.322;2022-11-21T13:13:45;10.50;;;4.77;;
819;SDS011;392;48.838;2.322;2022-11-21T13:16:17;9.17;;;5.03;;
819;SDS011;392;48.838;2.322;2022-11-21T13:19:01;8.00;;;5.60;;
819;SDS011;392;48.838;2.322;2022-11-21T13:21:44;8.63;;;4.70;;
819;SDS011;392;48.838;2.322;2022-11-21T13:27:28;10.27;;;5.40;;
819;SDS011;392;48.838;2.322;2022-11-21T13:32:49;9.40;;;5.33;;
819;SDS011;392;48.838;2.322;2022-11-21T13:38:31;9.90;;;5.07;;
819;SDS011;392;48.838;2.322;2022-11-21T13:42:00;8.87;;;5.37;;
819;SDS011;392;48.838;2.322;2022-11-21T13:48:20;7.30;;;4.50;;
819;SDS011;392;48.838;2.322;2022-11-21T13:51:36;10.40;;;4.40;;
819;SDS011;392;48.838;2.322;2022-11-21T13:54:33;7.60;;;4.67;;
819;SDS011;392;48.838;2.322;2022-11-21T13:57:57;10.63;;;4.83;;
819;SDS011;392;48.838;2.322;2022-11-21T14:00:40;8.47;;;4.30;;
819;SDS011;392;48.838;2.322;2022-11-21T14:03:30;8.63;;;4.27;;
819;SDS011;392;48.838;2.322;2022-11-21T14:09:04;8.93;;;5.27;;
819;SDS011;392;48.838;2.322;2022-11-21T14:11:45;8.63;;;5.60;;
819;SDS011;392;48.838;2.322;2022-11-21T14:14:29;9.30;;;4.83;;
819;SDS011;392;48.838;2.322;2022-11-21T14:17:07;9.00;;;5.00;;
819;SDS011;392;48.838;2.322;2022-11-21T14:19:56;7.43;;;4.43;;
819;SDS011;392;48.838;2.322;2022-11-21T14:22:26;6.63;;;4.00;;
819;SDS011;392;48.838;2.322;2022-11-21T14:25:05;5.97;;;4.67;;
819;SDS011;392;48.838;2.322;2022-11-21T14:27:36;5.70;;;3.80;;
819;SDS011;392;48.838;2.322;2022-11-21T14:33:20;8.60;;;4.50;;
819;SDS011;392;48.838;2.322;2022-11-21T14:35:53;6.13;;;4.87;;
819;SDS011;392;48.838;2.322;2022-11-21T14:38:25;11.40;;;5.37;;
819;SDS011;392;48.838;2.322;2022-11-21T14:41:10;5.67;;;4.87;;
819;SDS011;392;48.838;2.322;2022-11-21T14:44:00;6.10;;;4.47;;
819;SDS011;392;48.838;2.322;2022-11-21T14:46:41;6.97;;;4.30;;
819;SDS011;392;48.838;2.322;2022-11-21T14:49:20;6.90;;;4.70;;
819;SDS011;392;48.838;2.322;2022-11-21T14:51:57;8.70;;;4.10;;
819;SDS011;392;48.838;2.322;2022-11-21T14:54:31;7.83;;;3.80;;
819;SDS011;392;48.838;2.322;2022-11-21T14:57:05;7.13;;;4.03;;
819;SDS011;392;48.838;2.322;2022-11-21T14:59:35;7.47;;;4.17;;
819;SDS011;392;48.838;2.322;2022-11-21T15:02:10;6.93;;;4.80;;
819;SDS011;392;48.838;2.322;2022-11-21T15:04:40;7.07;;;5.70;;
819;SDS011;392;48.838;2.322;2022-11-21T15:07:15;5.10;;;4.13;;
819;SDS011;392;48.838;2.322;2022-11-21T15:09:46;4.90;;;4.13;;
819;SDS011;392;48.838;2.322;2022-11-21T15:12:15;6.00;;;4.70;;
819;SDS011;392;48.838;2.322;2022-11-21T15:14:50;5.87;;;4.77;;
819;SDS011;392;48.838;2.322;2022-11-21T15:17:21;5.90;;;4.80;;
819;SDS011;392;48.838;2.322;2022-11-21T15:20:04;6.20;;;5.30;;
819;SDS011;392;48.838;2.322;2022-11-21T15:22:44;5.47;;;4.97;;
819;SDS011;392;48.838;2.322;2022-11-21T15:25:14;7.90;;;5.07;;
819;SDS011;392;48.838;2.322;2022-11-21T15:27:45;5.43;;;4.70;;
819;SDS011;392;48.838;2.322;2022-11-21T15:30:23;5.60;;;4.73;;
819;SDS011;392;48.838;2.322;2022-11-21T15:33:02;4.87;;;4.47;;
819;SDS011;392;48.838;2.322;2022-11-21T15:38:26;5.83;;;4.57;;
819;SDS011;392;48.838;2.322;2022-11-21T15:41:01;6.10;;;5.27;;
819;SDS011;392;48.838;2.322;2022-11-21T15:43:50;6.53;;;5.83;;
819;SDS011;392;48.838;2.322;2022-11-21T15:46:20;5.40;;;4.90;;
819;SDS011;392;48.838;2.322;2022-11-21T15:48:50;4.93;;;4.53;;
819;SDS011;392;48.838;2.322;2022-11-21T15:51:19;9.00;;;8.20;;
819;SDS011;392;48.838;2.322;2022-11-21T15:53:50;5.03;;;4.63;;
819;SDS011;392;48.838;2.322;2022-11-21T15:56:18;5.07;;;4.63;;
819;SDS011;392;48.838;2.322;2022-11-21T15:58:47;9.70;;;7.43;;
819;SDS011;392;48.838;2.322;2022-11-21T16:01:15;6.57;;;5.80;;
819;SDS011;392;48.838;2.322;2022-11-21T16:03:45;7.50;;;6.50;;
819;SDS011;392;48.838;2.322;2022-11-21T16:06:16;23.33;;;17.60;;
819;SDS011;392;48.838;2.322;2022-11-21T16:08:45;12.90;;;11.60;;
819;SDS011;392;48.838;2.322;2022-11-21T16:11:15;26.70;;;24.23;;
819;SDS011;392;48.838;2.322;2022-11-21T16:13:49;14.63;;;13.23;;
819;SDS011;392;48.838;2.322;2022-11-21T16:16:18;8.83;;;8.13;;
819;SDS011;392;48.838;2.322;2022-11-21T16:18:47;8.47;;;7.73;;
819;SDS011;392;48.838;2.322;2022-11-21T16:21:16;10.60;;;9.50;;
819;SDS011;392;48.838;2.322;2022-11-21T16:23:44;18.93;;;16.93;;
819;SDS011;392;48.838;2.322;2022-11-21T16:26:11;5.80;;;5.30;;
819;SDS011;392;48.838;2.322;2022-11-21T16:28:38;9.90;;;9.00;;
819;SDS011;392;48.838;2.322;2022-11-21T16:31:06;5.23;;;4.73;;
819;SDS011;392;48.838;2.322;2022-11-21T16:33:43;6.13;;;5.40;;